Time;durP1;ratioP1;P1;durP2;ratioP2;P2;SDS_P1;SDS_P2;PMS_P1;PMS_P2;Temp;Humidity;BMP_temperature;BMP_pressure;BME280_temperature;BME280_humidity;BME280_pressure;Samples;Min_cycle;Max_cycle;Signal;HPM_P1;HPM_P2
2023/04/25 00:01:31;;;;;;;32.13;10.90;;;6.30;57.90;;;;;;5033045;28;20018;-72
2023/04/25 00:03:57;;;;;;;35.20;11.13;;;6.40;59.80;;;;;;5033180;28;20120;-72
2023/04/25 00:06:29;;;;;;;27.83;10.07;;;6.40;61.40;;;;;;5033259;28;20053;-72
2023/04/25 00:08:56;;;;;;;33.22;11.43;;;6.40;60.80;;;;;;5033613;28;20087;-72
2023/04/25 00:11:22;;;;;;;30.65;9.95;;;6.40;62.30;;;;;;5032894;28;20497;-72
2023/04/25 00:13:49;;;;;;;28.23;11.10;;;6.40;66.10;;;;;;5032568;28;20037;-72
2023/04/25 00:16:18;;;;;;;33.88;11.27;;;6.40;67.20;;;;;;5032759;28;20029;-71
2023/04/25 00:18:46;;;;;;;32.20;11.02;;;6.50;70.20;;;;;;5032732;28;20022;-71
2023/04/25 00:21:12;;;;;;;27.77;11.85;;;6.40;72.10;;;;;;5032549;28;20026;-71
2023/04/25 00:23:38;;;;;;;30.65;10.77;;;6.40;72.70;;;;;;5033757;28;20038;-71
2023/04/25 00:26:04;;;;;;;26.30;10.20;;;6.40;72.00;;;;;;5033264;28;20128;-72
2023/04/25 00:28:30;;;;;;;23.55;10.35;;;6.40;72.60;;;;;;5033179;28;20114;-72
2023/04/25 00:30:55;;;;;;;32.58;11.13;;;6.50;74.20;;;;;;5033293;28;20036;-72
2023/04/25 00:33:21;;;;;;;26.85;11.25;;;6.50;80.00;;;;;;5032849;28;20462;-72
2023/04/25 00:35:50;;;;;;;29.05;11.02;;;6.50;76.30;;;;;;5033661;28;20034;-72
2023/04/25 00:38:16;;;;;;;21.48;10.90;;;6.50;77.30;;;;;;5033127;28;20430;-72
2023/04/25 00:40:43;;;;;;;32.55;11.38;;;6.50;87.00;;;;;;5032888;28;20112;-72
2023/04/25 00:43:09;;;;;;;25.88;11.07;;;6.50;89.50;;;;;;5036611;28;20018;-71
2023/04/25 00:45:39;;;;;;;29.45;11.00;;;6.50;91.50;;;;;;5036766;28;20029;-72
2023/04/25 00:48:05;;;;;;;26.48;10.63;;;6.50;92.40;;;;;;5036638;28;20040;-72
2023/04/25 00:50:33;;;;;;;26.23;11.35;;;6.50;93.50;;;;;;5035903;28;20029;-71
2023/04/25 00:53:00;;;;;;;25.75;11.63;;;6.50;95.10;;;;;;5036222;28;20091;-70
2023/04/25 00:55:26;;;;;;;28.42;11.13;;;6.50;96.60;;;;;;5036531;28;20038;-71
2023/04/25 00:57:52;;;;;;;25.75;11.48;;;6.50;97.10;;;;;;5036359;28;20100;-71
2023/04/25 01:00:18;;;;;;;29.00;11.18;;;6.50;98.90;;;;;;5036520;28;20524;-71
2023/04/25 01:02:45;;;;;;;30.50;11.88;;;6.50;99.20;;;;;;5036674;28;20029;-70
2023/04/25 01:05:11;;;;;;;28.65;11.77;;;6.50;99.90;;;;;;5036370;28;20539;-70
2023/04/25 01:07:38;;;;;;;25.95;10.60;;;6.50;99.90;;;;;;5036312;28;20108;-70
2023/04/25 01:10:05;;;;;;;23.35;11.00;;;6.50;99.90;;;;;;5036360;28;20043;-71
2023/04/25 01:12:31;;;;;;;26.33;11.38;;;6.50;99.90;;;;;;5035856;28;20029;-70
2023/04/25 01:14:57;;;;;;;32.65;11.63;;;6.50;99.90;;;;;;5035624;28;20026;-71
2023/04/25 01:17:23;;;;;;;21.15;11.27;;;6.50;99.90;;;;;;5036531;28;20025;-71
2023/04/25 01:19:50;;;;;;;25.70;11.25;;;6.50;99.90;;;;;;5035490;28;20395;-71
2023/04/25 01:22:16;;;;;;;22.85;11.00;;;6.50;99.90;;;;;;5035246;28;20021;-71
2023/04/25 01:24:43;;;;;;;29.67;11.48;;;6.50;99.90;;;;;;5035287;28;20450;-71
2023/04/25 01:27:10;;;;;;;24.30;11.23;;;6.40;99.90;;;;;;5035689;28;20029;-71
2023/04/25 01:29:39;;;;;;;24.77;11.65;;;6.40;99.90;;;;;;5035254;28;20446;-71
2023/04/25 01:32:05;;;;;;;29.63;13.02;;;6.40;99.90;;;;;;5036120;28;20037;-71
2023/04/25 01:34:31;;;;;;;26.95;12.27;;;6.40;99.90;;;;;;5035046;28;20068;-72
2023/04/25 01:37:01;;;;;;;27.80;12.52;;;6.40;99.90;;;;;;5036091;28;20025;-71
2023/04/25 01:39:30;;;;;;;30.13;12.68;;;6.30;99.90;;;;;;5035332;28;20021;-71
2023/04/25 01:41:56;;;;;;;31.55;13.30;;;6.30;99.90;;;;;;5034975;28;20116;-71
2023/04/25 01:44:25;;;;;;;28.40;13.70;;;6.30;99.90;;;;;;5035040;28;20025;-71
2023/04/25 01:46:51;;;;;;;29.05;12.85;;;6.20;99.90;;;;;;5034895;28;20029;-71
2023/04/25 01:49:23;;;;;;;28.77;13.35;;;6.20;99.90;;;;;;5034809;28;20521;-71
2023/04/25 01:51:58;;;;;;;25.98;13.95;;;6.30;99.90;;;;;;5034727;28;20036;-71
2023/04/25 01:54:24;;;;;;;33.60;12.93;;;6.20;99.90;;;;;;5035550;28;20032;-72
2023/04/25 01:56:51;;;;;;;30.40;13.98;;;6.20;99.90;;;;;;5035083;28;20017;-70
2023/04/25 01:59:21;;;;;;;32.15;13.70;;;6.20;99.90;;;;;;5035237;28;20048;-70
2023/04/25 02:01:47;;;;;;;34.05;14.05;;;6.20;99.90;;;;;;5035434;28;20120;-71
2023/04/25 02:04:13;;;;;;;33.22;13.30;;;6.20;99.90;;;;;;5034668;28;20072;-71
2023/04/25 02:06:38;;;;;;;28.65;13.52;;;6.20;99.90;;;;;;5035493;28;20057;-71
2023/04/25 02:09:04;;;;;;;32.15;14.70;;;6.20;99.90;;;;;;5035720;28;20102;-71
2023/04/25 02:11:30;;;;;;;25.85;12.98;;;6.20;99.90;;;;;;5035107;28;20033;-70
2023/04/25 02:13:56;;;;;;;27.75;13.45;;;6.20;99.90;;;;;;5035323;28;20033;-70
2023/04/25 02:16:21;;;;;;;33.97;14.50;;;6.20;99.90;;;;;;5035417;28;20033;-71
2023/04/25 02:18:47;;;;;;;33.33;14.13;;;6.20;99.90;;;;;;5034808;28;20376;-73
2023/04/25 02:21:13;;;;;;;31.60;13.13;;;6.20;99.90;;;;;;5035468;28;20037;-71
2023/04/25 02:23:48;;;;;;;31.38;14.50;;;6.20;99.90;;;;;;5034880;28;20601;-71
2023/04/25 02:26:14;;;;;;;36.00;13.73;;;6.20;99.90;;;;;;5034944;28;20387;-70
2023/04/25 02:28:40;;;;;;;36.63;13.73;;;6.20;99.90;;;;;;5035152;28;20033;-70
2023/04/25 02:31:07;;;;;;;35.35;14.15;;;6.30;99.90;;;;;;5034852;28;20130;-70
2023/04/25 02:33:34;;;;;;;32.97;14.00;;;6.30;99.90;;;;;;5033891;28;20041;-70
2023/04/25 02:35:59;;;;;;;31.17;13.07;;;6.30;99.90;;;;;;5034874;28;20021;-70
2023/04/25 02:38:25;;;;;;;36.13;13.70;;;6.20;99.90;;;;;;5034081;28;20108;-70
2023/04/25 02:40:54;;;;;;;33.60;13.93;;;6.30;99.90;;;;;;5034192;28;20021;-71
2023/04/25 02:43:20;;;;;;;31.27;12.52;;;6.30;99.90;;;;;;5034790;28;20100;-71
2023/04/25 02:45:46;;;;;;;27.63;12.45;;;6.30;99.90;;;;;;5034489;28;20080;-71
2023/04/25 02:48:12;;;;;;;32.53;12.70;;;6.30;99.90;;;;;;5034242;28;20075;-70
2023/04/25 02:50:38;;;;;;;27.60;12.57;;;6.30;99.90;;;;;;5033704;28;20095;-71
2023/04/25 02:53:07;;;;;;;39.55;13.15;;;6.30;99.90;;;;;;5034902;28;20025;-71
2023/04/25 02:55:32;;;;;;;32.45;12.60;;;6.30;99.90;;;;;;5034078;28;20026;-71
2023/04/25 02:58:02;;;;;;;34.60;12.38;;;6.30;99.90;;;;;;5033668;28;20028;-71
2023/04/25 03:00:30;;;;;;;33.00;12.75;;;6.30;99.90;;;;;;5034649;28;20026;-70
2023/04/25 03:02:56;;;;;;;30.13;12.27;;;6.30;99.90;;;;;;5034379;28;20025;-71
2023/04/25 03:05:28;;;;;;;30.77;13.05;;;6.30;99.90;;;;;;5034042;28;20029;-70
2023/04/25 03:07:54;;;;;;;32.85;11.75;;;6.30;99.90;;;;;;5034097;28;20037;-71
2023/04/25 03:10:21;;;;;;;35.10;13.05;;;6.30;99.90;;;;;;5033435;28;20029;-70
2023/04/25 03:12:47;;;;;;;31.40;13.02;;;6.30;99.90;;;;;;5033395;28;20491;-70
2023/04/25 03:15:13;;;;;;;35.78;13.27;;;6.20;99.90;;;;;;5033437;28;20034;-70
2023/04/25 03:17:44;;;;;;;35.97;12.55;;;6.30;99.90;;;;;;5033861;28;20034;-72
2023/04/25 03:20:16;;;;;;;32.22;12.85;;;6.30;99.90;;;;;;5034093;28;20051;-72
2023/04/25 03:22:42;;;;;;;36.95;13.10;;;6.30;99.90;;;;;;5033549;28;20030;-71
2023/04/25 03:25:08;;;;;;;33.25;12.30;;;6.20;99.90;;;;;;5034377;28;20033;-72
2023/04/25 03:27:34;;;;;;;31.15;12.60;;;6.20;99.90;;;;;;5033996;28;20021;-72
2023/04/25 03:30:00;;;;;;;37.08;14.38;;;6.30;99.90;;;;;;5034084;28;20052;-72
2023/04/25 03:32:26;;;;;;;42.42;14.88;;;6.20;99.90;;;;;;5033520;28;20036;-71
2023/04/25 03:34:51;;;;;;;35.50;13.65;;;6.20;99.90;;;;;;5033009;28;20518;-72
2023/04/25 03:37:17;;;;;;;36.33;14.43;;;6.20;99.90;;;;;;5033072;28;20475;-72
2023/04/25 03:39:46;;;;;;;30.77;12.75;;;6.20;99.90;;;;;;5034405;28;20029;-72
2023/04/25 03:42:12;;;;;;;36.97;14.50;;;6.20;99.90;;;;;;5033748;28;20037;-71
2023/04/25 03:44:43;;;;;;;38.08;14.65;;;6.20;99.90;;;;;;5033034;28;20033;-71
2023/04/25 03:47:09;;;;;;;35.45;13.23;;;6.20;99.90;;;;;;5033343;28;20044;-70
2023/04/25 03:49:35;;;;;;;42.28;13.18;;;6.20;99.90;;;;;;5033430;28;20127;-70
2023/04/25 03:52:02;;;;;;;42.75;13.63;;;6.10;99.90;;;;;;5033571;28;20049;-70
2023/04/25 03:54:30;;;;;;;36.53;12.75;;;6.20;99.90;;;;;;5033004;28;20028;-71
2023/04/25 03:56:56;;;;;;;28.08;11.30;;;6.20;99.90;;;;;;5034119;28;20040;-71
2023/04/25 03:59:22;;;;;;;24.85;10.82;;;6.20;99.90;;;;;;5033120;28;20021;-72
2023/04/25 04:01:52;;;;;;;39.50;10.63;;;6.20;99.90;;;;;;5032849;28;20044;-71
2023/04/25 04:04:18;;;;;;;38.83;10.15;;;6.10;99.90;;;;;;5033724;28;20483;-71
2023/04/25 04:06:44;;;;;;;36.30;9.63;;;6.10;99.90;;;;;;5033094;28;20033;-71
2023/04/25 04:09:11;;;;;;;35.03;9.82;;;6.10;99.90;;;;;;5033323;28;20076;-71
2023/04/25 04:11:38;;;;;;;31.92;9.75;;;6.10;99.90;;;;;;5033012;28;20163;-71
2023/04/25 04:14:05;;;;;;;32.70;10.32;;;6.10;99.90;;;;;;5033217;28;20030;-71
2023/04/25 04:16:31;;;;;;;28.02;8.65;;;6.10;99.90;;;;;;5035371;28;20040;-70
2023/04/25 04:18:56;;;;;;;40.58;10.90;;;6.10;99.90;;;;;;5037401;28;20029;-70
2023/04/25 04:21:22;;;;;;;37.50;10.13;;;6.10;99.90;;;;;;5037936;28;20431;-71
2023/04/25 04:23:48;;;;;;;31.27;10.52;;;6.10;99.90;;;;;;5037292;28;20033;-70
2023/04/25 04:26:16;;;;;;;41.88;14.10;;;6.10;99.90;;;;;;5037912;28;20072;-72
2023/04/25 04:28:42;;;;;;;68.20;22.48;;;6.10;99.90;;;;;;5037040;28;20108;-71
2023/04/25 04:31:09;;;;;;;44.65;14.38;;;6.10;99.90;;;;;;5036857;28;20031;-70
2023/04/25 04:33:34;;;;;;;43.25;12.15;;;6.10;99.90;;;;;;5036880;28;20149;-70
2023/04/25 04:36:00;;;;;;;56.10;13.82;;;6.20;99.90;;;;;;5036712;28;20104;-71
2023/04/25 04:38:26;;;;;;;43.38;15.43;;;6.20;99.90;;;;;;5036966;28;20022;-71
2023/04/25 04:40:52;;;;;;;31.92;11.95;;;6.20;99.90;;;;;;5036948;28;20026;-71
2023/04/25 04:43:18;;;;;;;37.00;10.95;;;6.20;99.90;;;;;;5036708;28;20021;-71
2023/04/25 04:45:44;;;;;;;37.50;10.65;;;6.20;99.90;;;;;;5036502;28;20025;-71
2023/04/25 04:48:11;;;;;;;43.42;11.70;;;6.20;99.90;;;;;;5036826;28;20032;-71
2023/04/25 04:50:38;;;;;;;36.30;10.60;;;6.20;99.90;;;;;;5037139;28;20037;-71
2023/04/25 04:53:07;;;;;;;35.15;11.55;;;6.10;99.90;;;;;;5036783;28;20510;-71
2023/04/25 04:55:32;;;;;;;33.50;10.63;;;6.10;99.90;;;;;;5036527;28;20033;-71
2023/04/25 04:57:58;;;;;;;40.80;10.27;;;6.20;99.90;;;;;;5036789;28;20379;-71
2023/04/25 05:00:23;;;;;;;37.45;10.50;;;6.20;99.90;;;;;;5035899;28;20029;-71
2023/04/25 05:02:49;;;;;;;35.88;10.02;;;6.20;99.90;;;;;;5036600;28;20029;-71
2023/04/25 05:05:15;;;;;;;42.42;10.93;;;6.20;99.90;;;;;;5036587;28;20025;-70
2023/04/25 05:07:40;;;;;;;38.97;10.93;;;6.20;99.90;;;;;;5036565;28;20033;-71
2023/04/25 05:10:06;;;;;;;39.53;10.25;;;6.20;99.90;;;;;;5036320;28;20100;-71
2023/04/25 05:12:32;;;;;;;35.28;9.57;;;6.20;99.90;;;;;;5036463;28;20028;-71
2023/04/25 05:14:57;;;;;;;40.05;10.00;;;6.20;99.90;;;;;;5036471;28;20034;-71
2023/04/25 05:17:23;;;;;;;39.28;10.38;;;6.30;99.90;;;;;;5036231;28;20026;-71
2023/04/25 05:19:48;;;;;;;40.65;9.63;;;6.30;99.90;;;;;;5036157;28;20014;-71
2023/04/25 05:22:14;;;;;;;33.35;9.38;;;6.30;99.90;;;;;;5036502;28;20033;-71
2023/04/25 05:24:40;;;;;;;41.58;9.32;;;6.40;99.90;;;;;;5036288;28;20033;-71
2023/04/25 05:27:05;;;;;;;39.15;10.55;;;6.40;99.90;;;;;;5035780;28;20052;-71
2023/04/25 05:29:31;;;;;;;33.47;10.00;;;6.40;99.90;;;;;;5035958;28;20037;-71
2023/04/25 05:31:56;;;;;;;33.50;8.85;;;6.50;99.90;;;;;;5036069;28;20022;-71
2023/04/25 05:34:22;;;;;;;35.25;9.15;;;6.50;99.90;;;;;;5035413;28;20077;-71
2023/04/25 05:36:48;;;;;;;35.75;8.82;;;6.60;99.90;;;;;;5036249;28;20116;-71
2023/04/25 05:39:16;;;;;;;33.55;9.05;;;6.70;99.90;;;;;;5035788;28;20374;-71
2023/04/25 05:41:42;;;;;;;30.08;8.45;;;6.70;99.90;;;;;;5036133;28;20076;-71
2023/04/25 05:44:07;;;;;;;31.80;9.18;;;6.80;99.90;;;;;;5035576;28;20037;-71
2023/04/25 05:46:33;;;;;;;25.85;8.02;;;7.10;99.90;;;;;;5035833;28;20033;-71
2023/04/25 05:48:58;;;;;;;30.08;7.60;;;7.30;99.90;;;;;;5035516;28;20483;-71
2023/04/25 05:51:24;;;;;;;29.60;8.15;;;7.50;99.90;;;;;;5035634;28;20034;-71
2023/04/25 05:53:49;;;;;;;29.05;7.18;;;7.60;99.90;;;;;;5035858;28;20057;-71
2023/04/25 05:56:15;;;;;;;21.98;7.65;;;7.70;93.30;;;;;;5034808;28;20030;-70
2023/04/25 05:58:40;;;;;;;29.73;7.25;;;7.90;90.90;;;;;;5034488;28;20391;-71
2023/04/25 06:01:06;;;;;;;25.02;7.30;;;7.80;74.10;;;;;;5034752;28;20029;-71
2023/04/25 06:03:31;;;;;;;26.67;7.15;;;7.90;72.40;;;;;;5035502;28;20099;-71
2023/04/25 06:05:57;;;;;;;25.70;7.32;;;7.80;51.40;;;;;;5035187;28;20021;-71
2023/04/25 06:08:23;;;;;;;33.45;7.95;;;7.80;64.20;;;;;;5032833;28;20026;-70
2023/04/25 06:10:48;;;;;;;26.33;6.85;;;8.40;71.50;;;;;;5032990;28;20109;-71
2023/04/25 06:13:14;;;;;;;25.67;6.75;;;9.20;38.20;;;;;;5028041;28;20036;-71
2023/04/25 06:15:39;;;;;;;18.98;5.53;;;10.80;1.00;;;;;;5034059;28;20024;-72
2023/04/25 06:18:05;;;;;;;20.77;5.47;;;11.40;1.00;;;;;;5032506;28;21141;-71
2023/04/25 06:20:30;;;;;;;18.27;5.45;;;10.70;1.00;;;;;;5035409;28;20025;-72
2023/04/25 06:22:57;;;;;;;20.27;6.20;;;10.10;1.00;;;;;;5033922;28;20025;-70
2023/04/25 06:25:22;;;;;;;19.35;6.20;;;9.00;1.00;;;;;;5034232;28;20029;-71
2023/04/25 06:27:48;;;;;;;18.38;5.75;;;8.40;1.00;;;;;;5040694;28;20029;-70
2023/04/25 06:30:13;;;;;;;34.42;6.57;;;8.10;4.80;;;;;;5050000;28;20040;-71
2023/04/25 06:32:39;;;;;;;18.42;5.95;;;7.90;7.00;;;;;;5034312;28;20022;-72
2023/04/25 06:35:05;;;;;;;18.85;6.38;;;8.10;39.40;;;;;;5026042;28;20380;-70
2023/04/25 06:37:31;;;;;;;26.90;7.15;;;8.10;25.40;;;;;;5027346;28;20116;-71
2023/04/25 06:39:56;;;;;;;22.83;6.60;;;8.10;20.40;;;;;;5033214;28;20117;-71
2023/04/25 06:42:22;;;;;;;23.70;6.00;;;8.10;22.40;;;;;;5034009;28;20072;-71
2023/04/25 06:44:47;;;;;;;22.30;6.35;;;8.10;7.60;;;;;;5033897;28;20029;-71
2023/04/25 06:47:13;;;;;;;19.83;6.95;;;8.00;12.90;;;;;;5029832;28;21004;-71
2023/04/25 06:49:39;;;;;;;28.52;5.90;;;8.10;10.80;;;;;;5033978;28;20106;-72
2023/04/25 06:52:04;;;;;;;19.73;5.97;;;8.10;2.60;;;;;;5034613;28;20472;-72
2023/04/25 06:54:30;;;;;;;22.20;6.10;;;8.40;1.00;;;;;;5034178;28;20017;-72
2023/04/25 06:56:56;;;;;;;20.98;5.78;;;8.70;1.00;;;;;;5028652;28;20059;-70
2023/04/25 06:59:22;;;;;;;19.85;4.90;;;8.80;1.00;;;;;;5030707;28;20037;-71
2023/04/25 07:01:48;;;;;;;20.17;5.72;;;8.80;1.00;;;;;;5033148;28;20503;-70
2023/04/25 07:04:13;;;;;;;19.98;5.40;;;9.00;1.00;;;;;;5036191;28;20047;-71
2023/04/25 07:06:42;;;;;;;19.17;5.15;;;9.00;1.00;;;;;;5031868;28;20043;-69
2023/04/25 07:09:09;;;;;;;19.27;5.68;;;8.90;1.00;;;;;;5030320;28;20029;-71
2023/04/25 07:11:35;;;;;;;18.08;6.85;;;8.70;1.00;;;;;;5030917;28;20083;-70
2023/04/25 07:14:01;;;;;;;27.67;6.22;;;8.70;1.00;;;;;;5030607;28;20038;-71
2023/04/25 07:16:26;;;;;;;22.23;5.32;;;9.20;1.00;;;;;;5032099;28;20036;-71
2023/04/25 07:18:52;;;;;;;19.25;4.38;;;9.60;1.00;;;;;;5036348;28;20096;-71
2023/04/25 07:21:17;;;;;;;19.23;5.30;;;10.20;1.00;;;;;;5031136;28;20468;-71
2023/04/25 07:23:43;;;;;;;23.20;4.80;;;10.10;1.00;;;;;;5032866;28;20055;-71
2023/04/25 07:26:09;;;;;;;19.48;5.47;;;9.90;1.00;;;;;;5029472;28;20044;-71
2023/04/25 07:28:34;;;;;;;17.00;3.92;;;10.20;99.90;;;;;;5028068;28;20033;-71
2023/04/25 07:31:00;;;;;;;16.17;4.10;;;11.10;99.90;;;;;;5025835;28;20037;-72
2023/04/25 07:33:25;;;;;;;18.30;4.15;;;11.50;99.90;;;;;;5030768;28;20526;-71
2023/04/25 07:35:52;;;;;;;16.73;5.72;;;11.40;1.00;;;;;;5029763;28;20498;-72
2023/04/25 07:38:17;;;;;;;23.25;5.25;;;11.60;99.90;;;;;;5028679;28;20108;-70
2023/04/25 07:40:43;;;;;;;15.70;4.20;;;11.40;99.90;;;;;;5028563;28;20482;-71
2023/04/25 07:43:08;;;;;;;18.02;4.65;;;11.80;1.00;;;;;;5027594;28;20101;-70
2023/04/25 07:45:34;;;;;;;19.10;4.55;;;11.90;99.90;;;;;;5026993;28;20048;-70
2023/04/25 07:47:59;;;;;;;22.60;4.72;;;11.10;1.00;;;;;;5031488;28;20070;-70
2023/04/25 07:50:25;;;;;;;17.05;4.80;;;11.40;92.60;;;;;;5031501;28;20036;-71
2023/04/25 07:52:50;;;;;;;16.55;4.75;;;12.20;99.90;;;;;;5033703;28;20041;-72
2023/04/25 07:55:16;;;;;;;13.85;3.72;;;12.20;1.00;;;;;;5036160;28;20034;-71
2023/04/25 07:57:42;;;;;;;16.70;4.32;;;12.20;99.90;;;;;;5036414;28;20585;-71
2023/04/25 08:00:09;;;;;;;20.58;4.10;;;11.50;99.90;;;;;;5029150;28;20030;-71
2023/04/25 08:02:36;;;;;;;14.52;3.78;;;11.80;99.90;;;;;;5034455;28;20491;-71
2023/04/25 08:05:02;;;;;;;18.02;3.67;;;11.80;1.00;;;;;;5031106;28;20395;-71
2023/04/25 08:07:27;;;;;;;13.00;3.58;;;11.20;99.90;;;;;;5035150;28;20026;-70
2023/04/25 08:09:54;;;;;;;13.48;3.85;;;10.80;99.90;;;;;;5034150;28;20029;-71
2023/04/25 08:12:20;;;;;;;10.73;3.75;;;10.50;65.40;;;;;;5039241;28;20064;-71
2023/04/25 08:14:45;;;;;;;14.60;3.97;;;10.60;99.90;;;;;;5034224;28;20124;-71
2023/04/25 08:17:11;;;;;;;12.77;3.83;;;11.20;99.90;;;;;;5036390;28;20037;-71
2023/04/25 08:19:37;;;;;;;13.63;3.78;;;12.00;20.00;;;;;;5034661;28;20104;-71
2023/04/25 08:22:02;;;;;;;14.50;4.00;;;12.10;99.90;;;;;;5028269;28;20437;-70
2023/04/25 08:24:28;;;;;;;14.45;3.80;;;11.40;1.00;;;;;;5032772;28;20025;-71
2023/04/25 08:26:53;;;;;;;15.00;4.00;;;10.90;1.00;;;;;;5033605;28;20517;-70
2023/04/25 08:29:19;;;;;;;13.38;3.28;;;11.30;99.90;;;;;;5034226;28;20030;-70
2023/04/25 08:31:45;;;;;;;14.32;3.67;;;11.30;99.90;;;;;;5037156;28;20068;-71
2023/04/25 08:34:11;;;;;;;11.60;3.22;;;11.40;83.40;;;;;;5034869;28;20562;-72
2023/04/25 08:36:36;;;;;;;17.25;4.38;;;11.00;99.90;;;;;;5035220;28;20032;-71
2023/04/25 08:39:02;;;;;;;15.77;4.00;;;10.70;99.90;;;;;;5036965;28;20079;-72
2023/04/25 08:41:28;;;;;;;13.45;3.75;;;10.50;99.90;;;;;;5036829;28;20026;-72
2023/04/25 08:43:55;;;;;;;15.15;4.05;;;10.20;99.90;;;;;;5034030;28;20471;-71
2023/04/25 08:46:22;;;;;;;13.88;4.07;;;10.20;1.00;;;;;;5034851;28;20383;-70
2023/04/25 08:48:49;;;;;;;16.23;4.05;;;10.10;99.90;;;;;;5034519;28;20506;-72
2023/04/25 08:51:25;;;;;;;12.07;3.67;;;10.30;99.90;;;;;;5028090;28;20064;-70
2023/04/25 08:53:52;;;;;;;16.75;3.83;;;10.60;99.90;;;;;;5032746;28;20033;-71
2023/04/25 08:56:20;;;;;;;16.73;4.13;;;10.90;1.00;;;;;;5034890;28;20068;-71
2023/04/25 08:58:49;;;;;;;9.60;3.40;;;11.30;99.90;;;;;;5031552;28;20041;-71
2023/04/25 09:01:14;;;;;;;12.82;3.53;;;12.00;99.90;;;;;;5038100;28;20548;-71
2023/04/25 09:03:40;;;;;;;17.58;3.85;;;12.30;99.90;;;;;;5034653;28;20026;-72
2023/04/25 09:06:05;;;;;;;9.00;2.83;;;11.90;99.90;;;;;;5024594;28;20022;-71
2023/04/25 09:08:31;;;;;;;9.85;3.30;;;11.20;99.90;;;;;;5019368;28;20095;-71
2023/04/25 09:10:57;;;;;;;11.40;3.22;;;10.80;99.90;;;;;;5022977;28;20029;-72
2023/04/25 09:13:27;;;;;;;17.38;3.95;;;10.40;1.00;;;;;;5026444;28;20040;-71
2023/04/25 09:15:56;;;;;;;14.93;3.45;;;10.10;93.40;;;;;;5024731;28;20053;-70
2023/04/25 09:18:33;;;;;;;16.30;3.60;;;10.00;1.00;;;;;;5027612;28;20041;-71
2023/04/25 09:21:09;;;;;;;12.45;3.42;;;9.90;1.00;;;;;;5018554;28;20022;-72
2023/04/25 09:23:46;;;;;;;11.70;3.33;;;9.80;99.90;;;;;;5024691;28;20043;-70
2023/04/25 09:26:16;;;;;;;14.90;3.75;;;9.90;99.90;;;;;;5036044;28;20029;-72
2023/04/25 09:28:42;;;;;;;11.70;3.03;;;10.10;99.90;;;;;;5031662;28;20386;-72
2023/04/25 09:31:10;;;;;;;12.77;2.92;;;10.40;99.90;;;;;;5034335;28;20155;-71
2023/04/25 09:33:35;;;;;;;17.73;3.33;;;10.70;1.00;;;;;;5034699;28;20068;-73
2023/04/25 09:36:03;;;;;;;10.90;3.22;;;10.40;1.00;;;;;;5054632;28;20029;-72
2023/04/25 09:38:31;;;;;;;10.82;3.10;;;10.60;1.00;;;;;;5039893;28;20048;-72
2023/04/25 09:40:56;;;;;;;13.82;3.22;;;10.70;1.00;;;;;;5035175;28;20420;-72
2023/04/25 09:43:24;;;;;;;14.57;3.60;;;10.60;1.00;;;;;;5034392;28;20040;-72
2023/04/25 09:45:51;;;;;;;10.60;3.15;;;10.50;1.00;;;;;;5030996;28;20029;-71
2023/04/25 09:48:20;;;;;;;15.52;4.03;;;10.40;1.00;;;;;;5030155;28;20021;-71
2023/04/25 09:51:03;;;;;;;11.82;3.05;;;10.10;1.00;;;;;;5020914;28;20454;-71
2023/04/25 09:53:29;;;;;;;15.70;3.10;;;10.90;1.00;;;;;;5034599;28;20030;-72
2023/04/25 09:55:56;;;;;;;12.93;3.10;;;11.70;99.90;;;;;;5033805;28;20040;-72
2023/04/25 09:58:24;;;;;;;8.43;2.30;;;12.30;99.90;;;;;;5034769;28;20030;-72
2023/04/25 10:00:50;;;;;;;8.80;2.55;;;12.80;1.00;;;;;;5030077;28;20141;-73
2023/04/25 10:03:19;;;;;;;16.90;7.78;;;13.60;99.90;;;;;;5021136;28;20322;-72
2023/04/25 10:05:47;;;;;;;9.38;2.75;;;14.10;99.90;;;;;;5028826;28;20446;-71
2023/04/25 10:08:14;;;;;;;9.00;2.60;;;13.60;99.90;;;;;;5029671;28;20036;-71
2023/04/25 10:10:40;;;;;;;10.40;2.70;;;13.80;16.70;;;;;;5031951;28;20510;-72
2023/04/25 10:13:06;;;;;;;10.60;2.85;;;13.50;1.00;;;;;;5030178;28;20399;-71
2023/04/25 10:15:35;;;;;;;8.45;2.65;;;12.90;1.00;;;;;;5033828;28;20026;-72
2023/04/25 10:18:01;;;;;;;11.27;2.90;;;12.10;1.00;;;;;;5034197;28;20108;-72
2023/04/25 10:20:26;;;;;;;8.77;2.22;;;11.60;94.70;;;;;;5033855;28;20052;-72
2023/04/25 10:22:56;;;;;;;7.97;2.70;;;11.40;57.10;;;;;;5033864;28;20027;-70
2023/04/25 10:25:23;;;;;;;13.23;2.50;;;10.90;99.90;;;;;;5032472;28;20033;-70
2023/04/25 10:27:51;;;;;;;11.32;2.83;;;10.90;99.90;;;;;;5031595;28;20554;-69
2023/04/25 10:30:18;;;;;;;13.27;2.63;;;10.80;99.90;;;;;;5032093;28;20037;-69
2023/04/25 10:32:46;;;;;;;6.55;2.40;;;10.50;99.90;;;;;;5030069;28;20434;-70
2023/04/25 10:35:15;;;;;;;8.73;2.55;;;10.30;99.90;;;;;;5030302;28;20511;-70
2023/04/25 10:38:02;;;;;;;11.48;2.92;;;10.30;99.90;;;;;;5032999;28;20506;-71
2023/04/25 10:40:28;;;;;;;10.30;3.20;;;10.10;99.90;;;;;;5031807;28;20475;-69
2023/04/25 10:42:55;;;;;;;10.10;2.10;;;10.10;99.90;;;;;;5024415;28;20028;-70
2023/04/25 10:45:20;;;;;;;7.35;2.63;;;10.60;99.90;;;;;;5025000;28;20411;-69
2023/04/25 10:47:46;;;;;;;9.07;2.92;;;10.80;99.90;;;;;;5030598;28;20036;-70
2023/04/25 10:50:15;;;;;;;7.53;2.60;;;10.90;99.90;;;;;;5033579;28;20033;-69
2023/04/25 10:52:41;;;;;;;8.95;2.78;;;11.00;13.00;;;;;;5033815;28;20029;-70
2023/04/25 10:55:07;;;;;;;12.00;3.08;;;11.10;1.00;;;;;;5028179;28;20397;-69
2023/04/25 10:57:47;;;;;;;5.88;2.47;;;10.90;1.00;;;;;;5030476;28;20100;-69
2023/04/25 11:00:15;;;;;;;15.30;3.42;;;10.80;1.00;;;;;;5031037;28;20505;-70
2023/04/25 11:02:44;;;;;;;6.85;2.30;;;10.70;1.00;;;;;;5033278;28;20112;-71
2023/04/25 11:05:16;;;;;;;11.85;2.63;;;10.80;1.00;;;;;;5030655;28;20044;-69
2023/04/25 11:07:51;;;;;;;9.00;2.80;;;10.70;1.00;;;;;;5032105;28;20095;-70
2023/04/25 11:10:17;;;;;;;9.50;2.72;;;10.30;1.00;;;;;;5032805;28;20120;-71
2023/04/25 11:12:44;;;;;;;12.95;2.53;;;10.50;1.00;;;;;;5034223;28;20034;-71
2023/04/25 11:15:10;;;;;;;15.57;3.17;;;11.00;19.70;;;;;;5033661;28;20060;-69
2023/04/25 11:17:35;;;;;;;12.73;3.00;;;10.90;1.00;;;;;;5030039;28;20076;-69
2023/04/25 11:20:02;;;;;;;9.15;3.13;;;10.60;1.00;;;;;;5029952;28;20022;-71
2023/04/25 11:22:28;;;;;;;11.13;2.95;;;10.70;91.10;;;;;;5032170;28;20057;-71
2023/04/25 11:24:54;;;;;;;9.32;2.28;;;10.90;21.10;;;;;;5031109;28;20391;-70
2023/04/25 11:27:20;;;;;;;10.35;2.45;;;11.20;1.00;;;;;;5034200;28;20029;-72
2023/04/25 11:29:47;;;;;;;7.97;2.97;;;11.60;9.00;;;;;;5030612;28;20435;-71
2023/04/25 11:32:15;;;;;;;8.40;2.60;;;11.80;1.00;;;;;;5032516;28;20025;-71
2023/04/25 11:34:44;;;;;;;7.43;1.90;;;12.40;1.00;;;;;;5032844;28;20075;-71
2023/04/25 11:37:12;;;;;;;4.55;2.05;;;12.60;1.00;;;;;;5032667;28;20435;-72
2023/04/25 11:39:38;;;;;;;7.72;2.33;;;12.40;1.00;;;;;;5032949;28;20053;-71
2023/04/25 11:42:05;;;;;;;9.35;2.45;;;12.40;1.00;;;;;;5032072;28;20072;-71
2023/04/25 11:44:31;;;;;;;13.45;2.60;;;12.20;1.00;;;;;;5031785;28;20037;-70
2023/04/25 11:46:56;;;;;;;7.20;2.20;;;12.40;1.00;;;;;;5013853;28;20076;-70
2023/04/25 11:49:24;;;;;;;14.55;2.80;;;12.80;1.00;;;;;;5032147;28;20475;-71
2023/04/25 11:51:50;;;;;;;10.07;2.47;;;12.80;1.00;;;;;;5030357;28;20037;-71
2023/04/25 11:54:16;;;;;;;9.23;2.65;;;12.60;1.00;;;;;;5024023;28;20045;-72
2023/04/25 11:56:43;;;;;;;9.98;2.80;;;12.60;1.00;;;;;;5030217;28;20026;-71
2023/04/25 11:59:09;;;;;;;14.75;4.97;;;12.80;1.00;;;;;;5030834;28;20037;-70
2023/04/25 12:01:37;;;;;;;9.20;2.47;;;13.00;1.00;;;;;;5033178;28;20075;-71
2023/04/25 12:04:12;;;;;;;11.10;2.80;;;12.40;1.00;;;;;;5029234;28;20028;-70
2023/04/25 12:06:39;;;;;;;6.55;2.25;;;12.30;1.00;;;;;;5031504;28;20025;-70
2023/04/25 12:09:08;;;;;;;10.52;3.22;;;12.70;1.00;;;;;;5032925;28;20038;-70
2023/04/25 12:11:43;;;;;;;11.43;2.78;;;12.40;1.00;;;;;;5029639;28;20030;-71
2023/04/25 12:14:09;;;;;;;9.93;2.65;;;12.10;1.00;;;;;;5033209;28;20033;-71
2023/04/25 12:16:43;;;;;;;5.90;2.72;;;11.80;1.00;;;;;;5033080;28;20021;-70
2023/04/25 12:19:09;;;;;;;9.52;2.47;;;11.50;1.00;;;;;;5031014;28;20112;-71
2023/04/25 12:21:35;;;;;;;6.57;2.35;;;11.50;1.00;;;;;;5029846;28;20104;-70
2023/04/25 12:24:12;;;;;;;6.78;2.70;;;11.70;1.00;;;;;;5028014;28;20038;-70
2023/04/25 12:27:04;;;;;;;8.45;2.33;;;11.40;1.00;;;;;;5028832;28;20030;-71
2023/04/25 12:29:31;;;;;;;7.45;2.40;;;11.10;1.00;;;;;;5029540;28;20403;-71
2023/04/25 12:31:58;;;;;;;11.52;2.13;;;10.70;1.00;;;;;;5027218;28;20028;-71
2023/04/25 12:34:24;;;;;;;12.77;3.03;;;10.40;1.00;;;;;;5031928;28;20183;-70
2023/04/25 12:36:51;;;;;;;9.63;3.05;;;9.60;99.90;;;;;;5035749;28;20108;-70
2023/04/25 12:39:22;;;;;;;6.43;2.40;;;9.20;50.40;;;;;;5035782;28;20480;-70
2023/04/25 12:41:49;;;;;;;7.25;2.85;;;8.90;99.90;;;;;;5036094;28;20490;-71